sensor_id;sensor_type;location;lat;lon;timestamp;temperature;humidity
21807;DHT22;11065;50.786;7.840;2023-08-24T00:00:30;21.00;48.30
21807;DHT22;11065;50.786;7.840;2023-08-24T00:02:59;21.00;48.40
21807;DHT22;11065;50.786;7.840;2023-08-24T00:05:27;20.90;48.40
21807;DHT22;11065;50.786;7.840;2023-08-24T00:07:54;20.90;48.50
21807;DHT22;11065;50.786;7.840;2023-08-24T00:10:23;20.90;48.60
21807;DHT22;11065;50.786;7.840;2023-08-24T00:12:52;20.90;48.70
21807;DHT22;11065;50.786;7.840;2023-08-24T00:15:20;20.90;48.90
21807;DHT22;11065;50.786;7.840;2023-08-24T00:17:48;20.80;48.80
21807;DHT22;11065;50.786;7.840;2023-08-24T00:20:16;20.80;48.80
21807;DHT22;11065;50.786;7.840;2023-08-24T00:22:46;20.70;48.90
21807;DHT22;11065;50.786;7.840;2023-08-24T00:25:14;20.70;48.90
21807;DHT22;11065;50.786;7.840;2023-08-24T00:27:42;20.70;49.00
21807;DHT22;11065;50.786;7.840;2023-08-24T00:30:12;20.70;49.50
21807;DHT22;11065;50.786;7.840;2023-08-24T00:32:40;20.60;49.20
21807;DHT22;11065;50.786;7.840;2023-08-24T00:35:08;20.60;49.20
21807;DHT22;11065;50.786;7.840;2023-08-24T00:37:38;20.60;49.30
21807;DHT22;11065;50.786;7.840;2023-08-24T00:40:07;20.60;49.30
21807;DHT22;11065;50.786;7.840;2023-08-24T00:42:37;20.50;49.40
21807;DHT22;11065;50.786;7.840;2023-08-24T00:45:07;20.50;49.40
21807;DHT22;11065;50.786;7.840;2023-08-24T00:47:38;20.50;49.50
21807;DHT22;11065;50.786;7.840;2023-08-24T00:50:07;20.50;49.50
21807;DHT22;11065;50.786;7.840;2023-08-24T00:52:37;20.50;49.50
21807;DHT22;11065;50.786;7.840;2023-08-24T00:55:07;20.40;49.50
21807;DHT22;11065;50.786;7.840;2023-08-24T00:57:37;20.40;49.60
21807;DHT22;11065;50.786;7.840;2023-08-24T01:00:06;20.40;49.80
21807;DHT22;11065;50.786;7.840;2023-08-24T01:02:38;20.40;49.80
21807;DHT22;11065;50.786;7.840;2023-08-24T01:05:07;20.30;49.90
21807;DHT22;11065;50.786;7.840;2023-08-24T01:07:36;20.30;49.90
21807;DHT22;11065;50.786;7.840;2023-08-24T01:10:08;20.30;50.10
21807;DHT22;11065;50.786;7.840;2023-08-24T01:12:47;20.30;50.10
21807;DHT22;11065;50.786;7.840;2023-08-24T01:15:21;20.30;50.50
21807;DHT22;11065;50.786;7.840;2023-08-24T01:17:52;20.20;50.10
21807;DHT22;11065;50.786;7.840;2023-08-24T01:20:23;20.20;50.20
21807;DHT22;11065;50.786;7.840;2023-08-24T01:22:57;20.20;50.20
21807;DHT22;11065;50.786;7.840;2023-08-24T01:25:37;20.20;50.40
21807;DHT22;11065;50.786;7.840;2023-08-24T01:28:07;20.10;50.40
21807;DHT22;11065;50.786;7.840;2023-08-24T01:30:36;20.10;50.30
21807;DHT22;11065;50.786;7.840;2023-08-24T01:33:04;20.10;50.30
21807;DHT22;11065;50.786;7.840;2023-08-24T01:35:38;20.10;50.30
21807;DHT22;11065;50.786;7.840;2023-08-24T01:38:07;20.10;50.30
21807;DHT22;11065;50.786;7.840;2023-08-24T01:40:48;20.00;50.30
21807;DHT22;11065;50.786;7.840;2023-08-24T01:43:21;20.00;50.60
21807;DHT22;11065;50.786;7.840;2023-08-24T01:46:07;20.00;50.50
21807;DHT22;11065;50.786;7.840;2023-08-24T01:48:36;20.00;50.40
21807;DHT22;11065;50.786;7.840;2023-08-24T01:51:04;19.90;50.50
21807;DHT22;11065;50.786;7.840;2023-08-24T01:53:33;19.90;50.60
21807;DHT22;11065;50.786;7.840;2023-08-24T01:56:05;19.90;50.70
21807;DHT22;11065;50.786;7.840;2023-08-24T01:58:36;19.90;50.70
21807;DHT22;11065;50.786;7.840;2023-08-24T02:01:05;19.80;50.80
21807;DHT22;11065;50.786;7.840;2023-08-24T02:03:33;19.80;50.80
21807;DHT22;11065;50.786;7.840;2023-08-24T02:06:02;19.80;50.90
21807;DHT22;11065;50.786;7.840;2023-08-24T02:08:31;19.80;51.00
21807;DHT22;11065;50.786;7.840;2023-08-24T02:10:59;19.80;51.10
21807;DHT22;11065;50.786;7.840;2023-08-24T02:13:27;19.70;51.10
21807;DHT22;11065;50.786;7.840;2023-08-24T02:16:03;19.70;51.20
21807;DHT22;11065;50.786;7.840;2023-08-24T02:18:31;19.70;51.50
21807;DHT22;11065;50.786;7.840;2023-08-24T02:20:59;19.70;51.30
21807;DHT22;11065;50.786;7.840;2023-08-24T02:23:27;19.70;51.30
21807;DHT22;11065;50.786;7.840;2023-08-24T02:25:56;19.70;51.30
21807;DHT22;11065;50.786;7.840;2023-08-24T02:28:24;19.70;51.40
21807;DHT22;11065;50.786;7.840;2023-08-24T02:30:52;19.70;51.50
21807;DHT22;11065;50.786;7.840;2023-08-24T02:33:22;19.70;51.50
21807;DHT22;11065;50.786;7.840;2023-08-24T02:35:50;19.70;51.60
21807;DHT22;11065;50.786;7.840;2023-08-24T02:38:17;19.70;51.60
21807;DHT22;11065;50.786;7.840;2023-08-24T02:40:45;19.70;51.60
21807;DHT22;11065;50.786;7.840;2023-08-24T02:43:13;19.70;51.60
21807;DHT22;11065;50.786;7.840;2023-08-24T02:45:41;19.70;51.70
21807;DHT22;11065;50.786;7.840;2023-08-24T02:48:09;19.60;51.70
21807;DHT22;11065;50.786;7.840;2023-08-24T02:50:38;19.60;51.70
21807;DHT22;11065;50.786;7.840;2023-08-24T02:53:06;19.70;51.90
21807;DHT22;11065;50.786;7.840;2023-08-24T02:55:34;19.60;51.90
21807;DHT22;11065;50.786;7.840;2023-08-24T02:58:02;19.60;51.90
21807;DHT22;11065;50.786;7.840;2023-08-24T03:00:30;19.60;51.90
21807;DHT22;11065;50.786;7.840;2023-08-24T03:02:59;19.60;52.10
21807;DHT22;11065;50.786;7.840;2023-08-24T03:05:27;19.60;52.20
21807;DHT22;11065;50.786;7.840;2023-08-24T03:07:56;19.60;52.30
21807;DHT22;11065;50.786;7.840;2023-08-24T03:10:24;19.70;52.50
21807;DHT22;11065;50.786;7.840;2023-08-24T03:12:52;19.70;52.50
21807;DHT22;11065;50.786;7.840;2023-08-24T03:15:20;19.70;52.50
21807;DHT22;11065;50.786;7.840;2023-08-24T03:17:48;19.70;52.50
21807;DHT22;11065;50.786;7.840;2023-08-24T03:20:17;19.70;52.60
21807;DHT22;11065;50.786;7.840;2023-08-24T03:22:45;19.70;52.60
21807;DHT22;11065;50.786;7.840;2023-08-24T03:25:14;19.70;52.70
21807;DHT22;11065;50.786;7.840;2023-08-24T03:27:42;19.70;52.70
21807;DHT22;11065;50.786;7.840;2023-08-24T03:30:11;19.70;52.70
21807;DHT22;11065;50.786;7.840;2023-08-24T03:32:40;19.80;52.80
21807;DHT22;11065;50.786;7.840;2023-08-24T03:35:08;19.80;52.90
21807;DHT22;11065;50.786;7.840;2023-08-24T03:37:37;19.80;52.90
21807;DHT22;11065;50.786;7.840;2023-08-24T03:40:07;19.80;52.90
21807;DHT22;11065;50.786;7.840;2023-08-24T03:42:37;19.90;53.00
21807;DHT22;11065;50.786;7.840;2023-08-24T03:45:06;19.90;53.00
21807;DHT22;11065;50.786;7.840;2023-08-24T03:47:34;19.90;53.00
21807;DHT22;11065;50.786;7.840;2023-08-24T03:50:03;19.90;52.90
21807;DHT22;11065;50.786;7.840;2023-08-24T03:52:31;19.90;53.00
21807;DHT22;11065;50.786;7.840;2023-08-24T03:54:59;19.90;53.00
21807;DHT22;11065;50.786;7.840;2023-08-24T03:57:27;20.00;53.10
21807;DHT22;11065;50.786;7.840;2023-08-24T03:59:56;19.90;53.00
21807;DHT22;11065;50.786;7.840;2023-08-24T04:02:24;19.90;53.10
21807;DHT22;11065;50.786;7.840;2023-08-24T04:04:53;20.00;53.10
21807;DHT22;11065;50.786;7.840;2023-08-24T04:07:21;20.00;53.20
21807;DHT22;11065;50.786;7.840;2023-08-24T04:09:49;20.00;53.10
21807;DHT22;11065;50.786;7.840;2023-08-24T04:12:17;19.90;53.10
21807;DHT22;11065;50.786;7.840;2023-08-24T04:14:44;20.00;53.20
21807;DHT22;11065;50.786;7.840;2023-08-24T04:17:14;20.00;53.20
21807;DHT22;11065;50.786;7.840;2023-08-24T04:19:42;19.90;53.30
21807;DHT22;11065;50.786;7.840;2023-08-24T04:22:10;19.90;53.30
21807;DHT22;11065;50.786;7.840;2023-08-24T04:24:37;19.90;53.40
21807;DHT22;11065;50.786;7.840;2023-08-24T04:27:05;19.90;53.30
21807;DHT22;11065;50.786;7.840;2023-08-24T04:29:33;20.00;53.40
21807;DHT22;11065;50.786;7.840;2023-08-24T04:32:02;20.00;53.50
21807;DHT22;11065;50.786;7.840;2023-08-24T04:34:31;20.00;53.60
21807;DHT22;11065;50.786;7.840;2023-08-24T04:36:59;20.00;53.70
21807;DHT22;11065;50.786;7.840;2023-08-24T04:39:28;20.00;53.80
21807;DHT22;11065;50.786;7.840;2023-08-24T04:41:57;20.00;53.80
21807;DHT22;11065;50.786;7.840;2023-08-24T04:44:24;20.00;53.80
21807;DHT22;11065;50.786;7.840;2023-08-24T04:46:52;19.90;53.70
21807;DHT22;11065;50.786;7.840;2023-08-24T04:49:20;20.00;53.90
21807;DHT22;11065;50.786;7.840;2023-08-24T04:51:49;20.00;53.90
21807;DHT22;11065;50.786;7.840;2023-08-24T04:54:17;20.00;54.10
21807;DHT22;11065;50.786;7.840;2023-08-24T04:56:45;20.00;54.10
21807;DHT22;11065;50.786;7.840;2023-08-24T04:59:13;20.00;54.10
21807;DHT22;11065;50.786;7.840;2023-08-24T05:01:41;20.10;54.20
21807;DHT22;11065;50.786;7.840;2023-08-24T05:04:09;20.10;54.20
21807;DHT22;11065;50.786;7.840;2023-08-24T05:06:37;20.20;54.20
21807;DHT22;11065;50.786;7.840;2023-08-24T05:09:06;20.20;54.20
21807;DHT22;11065;50.786;7.840;2023-08-24T05:11:35;20.20;54.20
21807;DHT22;11065;50.786;7.840;2023-08-24T05:14:02;20.20;54.10
21807;DHT22;11065;50.786;7.840;2023-08-24T05:16:31;20.30;54.20
21807;DHT22;11065;50.786;7.840;2023-08-24T05:18:59;20.30;54.20
21807;DHT22;11065;50.786;7.840;2023-08-24T05:21:28;20.30;54.20
21807;DHT22;11065;50.786;7.840;2023-08-24T05:23:56;20.40;54.30
21807;DHT22;11065;50.786;7.840;2023-08-24T05:26:25;20.40;54.30
21807;DHT22;11065;50.786;7.840;2023-08-24T05:28:53;20.40;54.30
21807;DHT22;11065;50.786;7.840;2023-08-24T05:31:21;20.40;54.20
21807;DHT22;11065;50.786;7.840;2023-08-24T05:33:49;20.40;54.20
21807;DHT22;11065;50.786;7.840;2023-08-24T05:36:17;20.50;54.20
21807;DHT22;11065;50.786;7.840;2023-08-24T05:38:45;20.50;54.30
21807;DHT22;11065;50.786;7.840;2023-08-24T05:41:16;20.50;54.30
21807;DHT22;11065;50.786;7.840;2023-08-24T05:43:46;20.50;54.40
21807;DHT22;11065;50.786;7.840;2023-08-24T05:46:13;20.50;54.50
21807;DHT22;11065;50.786;7.840;2023-08-24T05:48:41;20.50;54.40
21807;DHT22;11065;50.786;7.840;2023-08-24T05:51:09;20.50;54.40
21807;DHT22;11065;50.786;7.840;2023-08-24T05:53:39;20.50;54.40
21807;DHT22;11065;50.786;7.840;2023-08-24T05:56:07;20.50;54.70
21807;DHT22;11065;50.786;7.840;2023-08-24T05:58:35;20.50;54.90
21807;DHT22;11065;50.786;7.840;2023-08-24T06:01:04;20.60;55.10
21807;DHT22;11065;50.786;7.840;2023-08-24T06:03:32;20.60;55.20
21807;DHT22;11065;50.786;7.840;2023-08-24T06:06:03;20.60;55.10
21807;DHT22;11065;50.786;7.840;2023-08-24T06:08:32;20.60;55.20
21807;DHT22;11065;50.786;7.840;2023-08-24T06:11:00;20.70;55.10
21807;DHT22;11065;50.786;7.840;2023-08-24T06:13:28;20.70;55.10
21807;DHT22;11065;50.786;7.840;2023-08-24T06:15:56;20.70;54.90
21807;DHT22;11065;50.786;7.840;2023-08-24T06:18:25;20.70;54.80
21807;DHT22;11065;50.786;7.840;2023-08-24T06:20:53;20.70;54.90
21807;DHT22;11065;50.786;7.840;2023-08-24T06:23:21;20.70;55.00
21807;DHT22;11065;50.786;7.840;2023-08-24T06:25:49;20.70;55.00
21807;DHT22;11065;50.786;7.840;2023-08-24T06:28:17;20.60;55.10
21807;DHT22;11065;50.786;7.840;2023-08-24T06:30:45;20.60;55.20
21807;DHT22;11065;50.786;7.840;2023-08-24T06:33:16;20.70;55.30
21807;DHT22;11065;50.786;7.840;2023-08-24T06:35:46;20.70;55.50
21807;DHT22;11065;50.786;7.840;2023-08-24T06:38:16;20.70;55.50
21807;DHT22;11065;50.786;7.840;2023-08-24T06:40:44;20.80;55.50
21807;DHT22;11065;50.786;7.840;2023-08-24T06:43:12;20.80;55.40
21807;DHT22;11065;50.786;7.840;2023-08-24T06:45:40;20.80;55.40
21807;DHT22;11065;50.786;7.840;2023-08-24T06:48:08;20.90;55.50
21807;DHT22;11065;50.786;7.840;2023-08-24T06:50:36;20.90;55.60
21807;DHT22;11065;50.786;7.840;2023-08-24T06:53:05;21.00;55.60
21807;DHT22;11065;50.786;7.840;2023-08-24T06:55:33;21.00;55.60
21807;DHT22;11065;50.786;7.840;2023-08-24T06:58:02;21.00;55.50
21807;DHT22;11065;50.786;7.840;2023-08-24T07:00:31;21.10;55.60
21807;DHT22;11065;50.786;7.840;2023-08-24T07:03:01;21.10;55.60
21807;DHT22;11065;50.786;7.840;2023-08-24T07:05:29;21.10;55.60
21807;DHT22;11065;50.786;7.840;2023-08-24T07:07:57;21.10;55.80
21807;DHT22;11065;50.786;7.840;2023-08-24T07:10:26;21.10;56.00
21807;DHT22;11065;50.786;7.840;2023-08-24T07:12:54;21.20;56.50
21807;DHT22;11065;50.786;7.840;2023-08-24T07:15:22;21.30;56.20
21807;DHT22;11065;50.786;7.840;2023-08-24T07:17:50;21.40;56.20
21807;DHT22;11065;50.786;7.840;2023-08-24T07:20:18;21.40;56.10
21807;DHT22;11065;50.786;7.840;2023-08-24T07:22:46;21.50;55.90
21807;DHT22;11065;50.786;7.840;2023-08-24T07:25:14;21.50;55.90
21807;DHT22;11065;50.786;7.840;2023-08-24T07:27:45;21.60;55.90
21807;DHT22;11065;50.786;7.840;2023-08-24T07:30:13;21.60;55.90
21807;DHT22;11065;50.786;7.840;2023-08-24T07:32:59;21.70;55.90
21807;DHT22;11065;50.786;7.840;2023-08-24T07:35:27;21.70;55.80
21807;DHT22;11065;50.786;7.840;2023-08-24T07:37:56;21.70;55.80
21807;DHT22;11065;50.786;7.840;2023-08-24T07:40:24;21.80;55.90
21807;DHT22;11065;50.786;7.840;2023-08-24T07:42:54;21.80;55.90
21807;DHT22;11065;50.786;7.840;2023-08-24T07:45:23;21.80;56.00
21807;DHT22;11065;50.786;7.840;2023-08-24T07:47:51;21.90;56.00
21807;DHT22;11065;50.786;7.840;2023-08-24T07:50:21;21.90;56.00
21807;DHT22;11065;50.786;7.840;2023-08-24T07:52:49;21.90;56.10
21807;DHT22;11065;50.786;7.840;2023-08-24T07:55:17;21.90;56.30
21807;DHT22;11065;50.786;7.840;2023-08-24T07:57:45;22.00;56.50
21807;DHT22;11065;50.786;7.840;2023-08-24T08:00:17;22.00;56.50
21807;DHT22;11065;50.786;7.840;2023-08-24T08:02:45;22.10;56.50
21807;DHT22;11065;50.786;7.840;2023-08-24T08:05:13;22.10;56.60
21807;DHT22;11065;50.786;7.840;2023-08-24T08:07:41;22.20;56.60
21807;DHT22;11065;50.786;7.840;2023-08-24T08:10:09;22.20;56.70
21807;DHT22;11065;50.786;7.840;2023-08-24T08:12:38;22.30;56.80
21807;DHT22;11065;50.786;7.840;2023-08-24T08:15:07;22.30;56.90
21807;DHT22;11065;50.786;7.840;2023-08-24T08:17:36;22.40;57.00
21807;DHT22;11065;50.786;7.840;2023-08-24T08:20:05;22.50;57.00
21807;DHT22;11065;50.786;7.840;2023-08-24T08:22:33;22.70;57.10
21807;DHT22;11065;50.786;7.840;2023-08-24T08:25:05;22.70;57.10
21807;DHT22;11065;50.786;7.840;2023-08-24T08:27:33;22.80;57.30
21807;DHT22;11065;50.786;7.840;2023-08-24T08:30:01;23.00;58.40
21807;DHT22;11065;50.786;7.840;2023-08-24T08:32:31;23.40;60.30
21807;DHT22;11065;50.786;7.840;2023-08-24T08:35:01;24.00;63.10
21807;DHT22;11065;50.786;7.840;2023-08-24T08:37:30;24.80;64.70
21807;DHT22;11065;50.786;7.840;2023-08-24T08:39:59;25.80;66.20
21807;DHT22;11065;50.786;7.840;2023-08-24T08:42:29;26.90;66.30
21807;DHT22;11065;50.786;7.840;2023-08-24T08:44:58;28.10;63.70
21807;DHT22;11065;50.786;7.840;2023-08-24T08:47:29;29.20;63.20
21807;DHT22;11065;50.786;7.840;2023-08-24T08:49:58;30.30;61.50
21807;DHT22;11065;50.786;7.840;2023-08-24T08:52:27;31.50;59.50
21807;DHT22;11065;50.786;7.840;2023-08-24T08:54:55;32.60;57.80
21807;DHT22;11065;50.786;7.840;2023-08-24T08:57:25;33.70;57.00
21807;DHT22;11065;50.786;7.840;2023-08-24T08:59:53;34.80;54.80
21807;DHT22;11065;50.786;7.840;2023-08-24T09:02:22;35.80;54.00
21807;DHT22;11065;50.786;7.840;2023-08-24T09:04:51;36.90;52.00
21807;DHT22;11065;50.786;7.840;2023-08-24T09:07:19;37.80;50.50
21807;DHT22;11065;50.786;7.840;2023-08-24T09:09:49;38.70;48.70
21807;DHT22;11065;50.786;7.840;2023-08-24T09:12:17;39.50;46.60
21807;DHT22;11065;50.786;7.840;2023-08-24T09:14:45;40.20;43.80
21807;DHT22;11065;50.786;7.840;2023-08-24T09:17:20;40.80;43.80
21807;DHT22;11065;50.786;7.840;2023-08-24T09:19:50;41.40;40.80
21807;DHT22;11065;50.786;7.840;2023-08-24T09:22:18;41.90;41.00
21807;DHT22;11065;50.786;7.840;2023-08-24T09:24:50;42.40;39.20
21807;DHT22;11065;50.786;7.840;2023-08-24T09:27:18;42.80;37.70
21807;DHT22;11065;50.786;7.840;2023-08-24T09:29:48;43.10;38.10
21807;DHT22;11065;50.786;7.840;2023-08-24T09:32:22;43.40;36.80
21807;DHT22;11065;50.786;7.840;2023-08-24T09:34:50;43.80;35.30
21807;DHT22;11065;50.786;7.840;2023-08-24T09:37:18;43.90;34.70
21807;DHT22;11065;50.786;7.840;2023-08-24T09:39:46;44.10;34.50
21807;DHT22;11065;50.786;7.840;2023-08-24T09:42:24;44.20;34.30
21807;DHT22;11065;50.786;7.840;2023-08-24T09:45:02;44.40;33.30
21807;DHT22;11065;50.786;7.840;2023-08-24T09:47:31;44.60;32.00
21807;DHT22;11065;50.786;7.840;2023-08-24T09:49:59;44.80;32.90
21807;DHT22;11065;50.786;7.840;2023-08-24T09:52:31;44.90;32.00
21807;DHT22;11065;50.786;7.840;2023-08-24T09:55:03;45.10;31.80
21807;DHT22;11065;50.786;7.840;2023-08-24T09:57:37;45.30;31.40
21807;DHT22;11065;50.786;7.840;2023-08-24T10:00:06;45.60;31.30
21807;DHT22;11065;50.786;7.840;2023-08-24T10:02:46;45.90;31.60
21807;DHT22;11065;50.786;7.840;2023-08-24T10:05:20;46.20;31.00
21807;DHT22;11065;50.786;7.840;2023-08-24T10:07:52;46.40;30.80
21807;DHT22;11065;50.786;7.840;2023-08-24T10:10:21;46.70;30.90
21807;DHT22;11065;50.786;7.840;2023-08-24T10:12:56;46.80;30.50
21807;DHT22;11065;50.786;7.840;2023-08-24T10:15:26;47.10;29.60
21807;DHT22;11065;50.786;7.840;2023-08-24T10:17:55;47.30;29.90
21807;DHT22;11065;50.786;7.840;2023-08-24T10:20:24;47.40;29.80
21807;DHT22;11065;50.786;7.840;2023-08-24T10:22:52;47.70;29.40
21807;DHT22;11065;50.786;7.840;2023-08-24T10:25:22;47.70;29.40
21807;DHT22;11065;50.786;7.840;2023-08-24T10:27:53;47.90;28.90
21807;DHT22;11065;50.786;7.840;2023-08-24T10:30:21;47.90;28.60
21807;DHT22;11065;50.786;7.840;2023-08-24T10:32:50;48.10;28.60
21807;DHT22;11065;50.786;7.840;2023-08-24T10:35:21;48.10;28.30
21807;DHT22;11065;50.786;7.840;2023-08-24T10:37:52;48.10;28.20
21807;DHT22;11065;50.786;7.840;2023-08-24T10:40:31;48.10;27.80
21807;DHT22;11065;50.786;7.840;2023-08-24T10:43:04;48.10;27.30
21807;DHT22;11065;50.786;7.840;2023-08-24T10:45:53;47.80;27.20
21807;DHT22;11065;50.786;7.840;2023-08-24T10:48:22;47.40;27.00
21807;DHT22;11065;50.786;7.840;2023-08-24T10:51:21;46.90;27.00
21807;DHT22;11065;50.786;7.840;2023-08-24T10:53:52;46.30;27.10
21807;DHT22;11065;50.786;7.840;2023-08-24T10:56:20;45.70;26.80
21807;DHT22;11065;50.786;7.840;2023-08-24T10:59:11;45.10;26.90
21807;DHT22;11065;50.786;7.840;2023-08-24T11:01:40;44.50;27.10
21807;DHT22;11065;50.786;7.840;2023-08-24T11:04:08;44.00;27.20
21807;DHT22;11065;50.786;7.840;2023-08-24T11:06:51;43.50;27.00
21807;DHT22;11065;50.786;7.840;2023-08-24T11:09:20;42.80;26.90
21807;DHT22;11065;50.786;7.840;2023-08-24T11:11:58;42.30;27.50
21807;DHT22;11065;50.786;7.840;2023-08-24T11:14:28;41.60;27.20
21807;DHT22;11065;50.786;7.840;2023-08-24T11:16:59;41.10;27.60
21807;DHT22;11065;50.786;7.840;2023-08-24T11:19:27;40.80;27.80
21807;DHT22;11065;50.786;7.840;2023-08-24T11:21:57;40.50;28.00
21807;DHT22;11065;50.786;7.840;2023-08-24T11:24:26;40.30;28.10
21807;DHT22;11065;50.786;7.840;2023-08-24T11:26:55;40.10;28.20
21807;DHT22;11065;50.786;7.840;2023-08-24T11:29:28;39.90;28.30
21807;DHT22;11065;50.786;7.840;2023-08-24T11:31:57;39.90;28.70
21807;DHT22;11065;50.786;7.840;2023-08-24T11:34:25;39.90;28.80
21807;DHT22;11065;50.786;7.840;2023-08-24T11:36:53;39.90;29.00
21807;DHT22;11065;50.786;7.840;2023-08-24T11:39:22;40.00;29.10
21807;DHT22;11065;50.786;7.840;2023-08-24T11:41:58;40.20;29.30
21807;DHT22;11065;50.786;7.840;2023-08-24T11:44:28;40.40;29.30
21807;DHT22;11065;50.786;7.840;2023-08-24T11:46:56;40.60;29.30
21807;DHT22;11065;50.786;7.840;2023-08-24T11:49:26;40.80;29.30
21807;DHT22;11065;50.786;7.840;2023-08-24T11:51:55;40.90;29.30
21807;DHT22;11065;50.786;7.840;2023-08-24T11:54:24;41.00;29.30
21807;DHT22;11065;50.786;7.840;2023-08-24T11:56:53;41.10;29.30
21807;DHT22;11065;50.786;7.840;2023-08-24T11:59:20;41.10;29.30
21807;DHT22;11065;50.786;7.840;2023-08-24T12:01:51;41.10;29.20
21807;DHT22;11065;50.786;7.840;2023-08-24T12:04:19;41.10;29.10
21807;DHT22;11065;50.786;7.840;2023-08-24T12:06:47;41.10;29.00
21807;DHT22;11065;50.786;7.840;2023-08-24T12:09:15;41.00;28.90
21807;DHT22;11065;50.786;7.840;2023-08-24T12:11:43;40.80;28.80
21807;DHT22;11065;50.786;7.840;2023-08-24T12:14:17;40.60;28.60
21807;DHT22;11065;50.786;7.840;2023-08-24T12:16:45;40.30;28.50
21807;DHT22;11065;50.786;7.840;2023-08-24T12:19:14;40.00;28.60
21807;DHT22;11065;50.786;7.840;2023-08-24T12:21:43;39.70;28.90
21807;DHT22;11065;50.786;7.840;2023-08-24T12:24:14;39.50;29.20
21807;DHT22;11065;50.786;7.840;2023-08-24T12:26:42;39.30;29.10
21807;DHT22;11065;50.786;7.840;2023-08-24T12:29:10;38.90;29.10
21807;DHT22;11065;50.786;7.840;2023-08-24T12:31:42;38.60;29.20
21807;DHT22;11065;50.786;7.840;2023-08-24T12:34:15;38.40;29.60
21807;DHT22;11065;50.786;7.840;2023-08-24T12:36:44;38.00;29.60
21807;DHT22;11065;50.786;7.840;2023-08-24T12:39:12;37.80;29.60
21807;DHT22;11065;50.786;7.840;2023-08-24T12:41:40;37.50;29.60
21807;DHT22;11065;50.786;7.840;2023-08-24T12:44:08;37.30;29.70
21807;DHT22;11065;50.786;7.840;2023-08-24T12:46:41;37.00;30.20
21807;DHT22;11065;50.786;7.840;2023-08-24T12:49:09;36.70;29.90
21807;DHT22;11065;50.786;7.840;2023-08-24T12:51:38;36.60;30.30
21807;DHT22;11065;50.786;7.840;2023-08-24T12:54:07;36.40;30.30
21807;DHT22;11065;50.786;7.840;2023-08-24T12:56:38;36.20;30.20
21807;DHT22;11065;50.786;7.840;2023-08-24T12:59:06;36.00;30.50
21807;DHT22;11065;50.786;7.840;2023-08-24T13:01:34;35.90;30.60
21807;DHT22;11065;50.786;7.840;2023-08-24T13:04:02;35.60;30.70
21807;DHT22;11065;50.786;7.840;2023-08-24T13:06:30;35.40;30.80
21807;DHT22;11065;50.786;7.840;2023-08-24T13:09:01;35.20;30.90
21807;DHT22;11065;50.786;7.840;2023-08-24T13:11:29;35.00;31.10
21807;DHT22;11065;50.786;7.840;2023-08-24T13:13:57;34.80;31.30
21807;DHT22;11065;50.786;7.840;2023-08-24T13:16:25;34.50;31.40
21807;DHT22;11065;50.786;7.840;2023-08-24T13:18:54;34.30;31.70
21807;DHT22;11065;50.786;7.840;2023-08-24T13:21:25;34.20;31.80
21807;DHT22;11065;50.786;7.840;2023-08-24T13:23:53;33.90;32.30
21807;DHT22;11065;50.786;7.840;2023-08-24T13:26:22;33.80;32.40
21807;DHT22;11065;50.786;7.840;2023-08-24T13:28:51;33.60;32.70
21807;DHT22;11065;50.786;7.840;2023-08-24T13:31:19;33.40;32.90
21807;DHT22;11065;50.786;7.840;2023-08-24T13:33:47;33.30;33.10
21807;DHT22;11065;50.786;7.840;2023-08-24T13:36:15;33.10;33.40
21807;DHT22;11065;50.786;7.840;2023-08-24T13:38:43;33.10;33.70
21807;DHT22;11065;50.786;7.840;2023-08-24T13:41:12;33.10;34.20
21807;DHT22;11065;50.786;7.840;2023-08-24T13:43:41;33.00;34.40
21807;DHT22;11065;50.786;7.840;2023-08-24T13:46:09;33.00;34.70
21807;DHT22;11065;50.786;7.840;2023-08-24T13:48:37;33.00;34.70
21807;DHT22;11065;50.786;7.840;2023-08-24T13:51:05;32.90;34.70
21807;DHT22;11065;50.786;7.840;2023-08-24T13:53:34;32.90;34.90
21807;DHT22;11065;50.786;7.840;2023-08-24T13:56:03;32.90;34.80
21807;DHT22;11065;50.786;7.840;2023-08-24T13:58:32;32.80;34.70
21807;DHT22;11065;50.786;7.840;2023-08-24T14:01:01;32.70;34.80
21807;DHT22;11065;50.786;7.840;2023-08-24T14:03:30;32.60;35.10
21807;DHT22;11065;50.786;7.840;2023-08-24T14:05:58;32.60;35.10
21807;DHT22;11065;50.786;7.840;2023-08-24T14:08:27;32.50;35.20
21807;DHT22;11065;50.786;7.840;2023-08-24T14:10:54;32.40;35.40
21807;DHT22;11065;50.786;7.840;2023-08-24T14:13:22;32.30;35.40
21807;DHT22;11065;50.786;7.840;2023-08-24T14:15:51;32.20;35.70
21807;DHT22;11065;50.786;7.840;2023-08-24T14:18:21;32.10;36.00
21807;DHT22;11065;50.786;7.840;2023-08-24T14:20:49;31.90;36.10
21807;DHT22;11065;50.786;7.840;2023-08-24T14:23:17;31.80;36.10
21807;DHT22;11065;50.786;7.840;2023-08-24T14:25:46;31.70;36.20
21807;DHT22;11065;50.786;7.840;2023-08-24T14:28:19;31.50;36.20
21807;DHT22;11065;50.786;7.840;2023-08-24T14:30:47;31.40;36.50
21807;DHT22;11065;50.786;7.840;2023-08-24T14:33:16;31.30;36.50
21807;DHT22;11065;50.786;7.840;2023-08-24T14:35:51;31.20;36.50
21807;DHT22;11065;50.786;7.840;2023-08-24T14:38:19;31.00;37.00
21807;DHT22;11065;50.786;7.840;2023-08-24T14:40:47;31.00;37.00
21807;DHT22;11065;50.786;7.840;2023-08-24T14:43:15;30.90;37.10
21807;DHT22;11065;50.786;7.840;2023-08-24T14:45:43;30.90;37.60
21807;DHT22;11065;50.786;7.840;2023-08-24T14:48:11;30.90;38.00
21807;DHT22;11065;50.786;7.840;2023-08-24T14:50:39;30.90;38.10
21807;DHT22;11065;50.786;7.840;2023-08-24T14:53:08;30.80;38.00
21807;DHT22;11065;50.786;7.840;2023-08-24T14:55:37;30.80;38.00
21807;DHT22;11065;50.786;7.840;2023-08-24T14:58:05;30.70;38.10
21807;DHT22;11065;50.786;7.840;2023-08-24T15:00:34;30.70;38.30
21807;DHT22;11065;50.786;7.840;2023-08-24T15:03:02;30.70;38.70
21807;DHT22;11065;50.786;7.840;2023-08-24T15:05:31;30.70;38.60
21807;DHT22;11065;50.786;7.840;2023-08-24T15:07:58;30.70;38.60
21807;DHT22;11065;50.786;7.840;2023-08-24T15:10:28;30.70;38.80
21807;DHT22;11065;50.786;7.840;2023-08-24T15:12:56;30.60;38.90
21807;DHT22;11065;50.786;7.840;2023-08-24T15:15:23;30.60;38.90
21807;DHT22;11065;50.786;7.840;2023-08-24T15:17:51;30.50;38.90
21807;DHT22;11065;50.786;7.840;2023-08-24T15:20:19;30.50;39.20
21807;DHT22;11065;50.786;7.840;2023-08-24T15:22:48;30.40;39.30
21807;DHT22;11065;50.786;7.840;2023-08-24T15:25:16;30.40;39.60
21807;DHT22;11065;50.786;7.840;2023-08-24T15:27:45;30.30;39.70
21807;DHT22;11065;50.786;7.840;2023-08-24T15:30:13;30.20;39.70
21807;DHT22;11065;50.786;7.840;2023-08-24T15:32:41;30.20;39.70
21807;DHT22;11065;50.786;7.840;2023-08-24T15:35:09;30.10;39.70
21807;DHT22;11065;50.786;7.840;2023-08-24T15:37:37;30.10;39.80
21807;DHT22;11065;50.786;7.840;2023-08-24T15:40:07;30.00;39.90
21807;DHT22;11065;50.786;7.840;2023-08-24T15:42:35;29.90;40.10